Time;durP1;ratioP1;P1;durP2;ratioP2;P2;SDS_P1;SDS_P2;PMS_P1;PMS_P2;Temp;Humidity;BMP_temperature;BMP_pressure;BME280_temperature;BME280_humidity;BME280_pressure;Samples;Min_cycle;Max_cycle;Signal;HPM_P1;HPM_P2
2023/02/05 00:01:53;;;;;;;;;4.00;4.00;;;;;;;;5083734;27;10628;-83
2023/02/05 00:04:22;;;;;;;;;4.50;4.50;;;;;;;;5060184;28;10779;-84
2023/02/05 00:06:50;;;;;;;;;5.00;3.00;;;;;;;;5078346;28;10723;-84
2023/02/05 00:09:18;;;;;;;;;4.50;4.00;;;;;;;;5076978;28;10690;-83
2023/02/05 00:11:45;;;;;;;;;4.50;3.75;;;;;;;;5058784;28;10705;-83
2023/02/05 00:14:13;;;;;;;;;4.75;4.75;;;;;;;;5078761;28;10672;-84
2023/02/05 00:16:41;;;;;;;;;7.75;5.00;;;;;;;;5063018;28;10665;-83
2023/02/05 00:19:09;;;;;;;;;3.75;3.75;;;;;;;;5081245;28;10770;-84
2023/02/05 00:21:38;;;;;;;;;2.75;2.75;;;;;;;;5059302;28;10745;-84
2023/02/05 00:24:05;;;;;;;;;3.00;3.00;;;;;;;;5079628;28;10592;-83
2023/02/05 00:26:33;;;;;;;;;6.00;4.00;;;;;;;;5082065;28;10876;-84
2023/02/05 00:29:01;;;;;;;;;4.25;4.25;;;;;;;;5082992;28;10753;-84
2023/02/05 00:31:28;;;;;;;;;7.25;3.25;;;;;;;;5094360;28;10680;-84
2023/02/05 00:33:56;;;;;;;;;4.00;4.00;;;;;;;;5080830;28;10685;-84
2023/02/05 00:36:24;;;;;;;;;10.00;7.00;;;;;;;;5098831;27;10673;-83
2023/02/05 00:38:53;;;;;;;;;4.50;4.50;;;;;;;;5097605;28;10824;-84
2023/02/05 00:41:21;;;;;;;;;3.25;3.25;;;;;;;;5080047;28;10816;-83
2023/02/05 00:43:48;;;;;;;;;3.75;3.75;;;;;;;;5096573;27;10745;-83
2023/02/05 00:46:16;;;;;;;;;4.00;4.00;;;;;;;;5098172;27;10728;-84
2023/02/05 00:48:44;;;;;;;;;4.00;3.00;;;;;;;;5086653;28;10762;-83
2023/02/05 00:51:12;;;;;;;;;4.75;4.75;;;;;;;;5106000;27;10806;-83
2023/02/05 00:53:39;;;;;;;;;3.00;3.00;;;;;;;;5095359;27;10573;-84
2023/02/05 00:56:09;;;;;;;;;4.00;4.00;;;;;;;;5103566;27;10662;-83
2023/02/05 00:58:37;;;;;;;;;2.00;2.00;;;;;;;;5085091;27;10693;-83
2023/02/05 01:01:05;;;;;;;;;3.25;3.25;;;;;;;;5084498;28;10643;-84
2023/02/05 01:03:33;;;;;;;;;6.50;4.00;;;;;;;;5104203;27;10524;-84
2023/02/05 01:06:02;;;;;;;;;8.50;6.00;;;;;;;;5103088;27;10596;-83
2023/02/05 01:08:29;;;;;;;;;7.00;7.00;;;;;;;;5102469;27;10675;-82
2023/02/05 01:10:57;;;;;;;;;8.00;8.00;;;;;;;;5100739;28;10842;-83
2023/02/05 01:13:26;;;;;;;;;8.75;7.50;;;;;;;;5101847;27;10748;-83
2023/02/05 01:15:55;;;;;;;;;7.00;7.00;;;;;;;;5097562;27;10811;-83
2023/02/05 01:18:23;;;;;;;;;3.25;3.25;;;;;;;;5083630;28;10910;-83
2023/02/05 01:20:50;;;;;;;;;5.00;5.00;;;;;;;;5078300;28;10750;-83
2023/02/05 01:23:18;;;;;;;;;8.25;5.00;;;;;;;;5097173;28;10805;-82
2023/02/05 01:25:46;;;;;;;;;8.25;7.00;;;;;;;;5064176;28;10753;-83
2023/02/05 01:28:13;;;;;;;;;6.75;6.75;;;;;;;;5100269;28;11041;-83
2023/02/05 01:30:43;;;;;;;;;4.25;4.25;;;;;;;;5064525;28;10859;-82
2023/02/05 01:33:10;;;;;;;;;4.25;4.25;;;;;;;;5082356;28;10728;-83
2023/02/05 01:35:41;;;;;;;;;6.50;6.50;;;;;;;;5078989;28;10810;-83
2023/02/05 01:38:10;;;;;;;;;9.75;6.00;;;;;;;;5082080;28;10717;-83
2023/02/05 01:40:38;;;;;;;;;9.00;6.50;;;;;;;;5064022;28;10934;-83
2023/02/05 01:43:10;;;;;;;;;9.00;5.50;;;;;;;;5084563;28;10770;-83
2023/02/05 01:46:04;;;;;;;;;5.25;3.00;;;;;;;;5083423;28;10894;-83
2023/02/05 01:48:36;;;;;;;;;7.00;7.00;;;;;;;;5078850;28;10926;-83
2023/02/05 01:51:06;;;;;;;;;5.00;5.00;;;;;;;;5058039;28;10939;-83
2023/02/05 01:53:36;;;;;;;;;4.00;4.00;;;;;;;;5056799;28;10840;-84
2023/02/05 01:56:09;;;;;;;;;7.00;4.25;;;;;;;;5064204;28;10826;-83
2023/02/05 01:58:40;;;;;;;;;3.00;3.00;;;;;;;;5061698;28;10901;-83
2023/02/05 02:01:09;;;;;;;;;4.00;4.00;;;;;;;;5062839;28;10698;-83
2023/02/05 02:03:39;;;;;;;;;6.75;6.00;;;;;;;;5082002;28;10830;-84
2023/02/05 02:06:07;;;;;;;;;3.00;3.00;;;;;;;;5079243;28;10831;-83
2023/02/05 02:08:35;;;;;;;;;7.00;5.00;;;;;;;;5075060;28;10920;-84
2023/02/05 02:11:06;;;;;;;;;7.25;5.25;;;;;;;;5106096;27;10847;-84
2023/02/05 02:13:34;;;;;;;;;8.00;6.50;;;;;;;;5076982;28;10882;-84
2023/02/05 02:16:02;;;;;;;;;5.00;5.00;;;;;;;;5077542;28;10890;-84
2023/02/05 02:18:32;;;;;;;;;7.00;7.00;;;;;;;;5078693;28;11064;-84
2023/02/05 02:21:27;;;;;;;;;7.00;6.50;;;;;;;;5076009;28;10926;-84
2023/02/05 02:24:10;;;;;;;;;7.00;7.00;;;;;;;;5073644;28;11031;-84
2023/02/05 02:26:59;;;;;;;;;4.25;4.25;;;;;;;;5075141;28;11074;-84
2023/02/05 02:29:36;;;;;;;;;7.25;7.25;;;;;;;;5076315;28;10847;-82
2023/02/05 02:32:09;;;;;;;;;6.25;6.25;;;;;;;;5079227;28;10790;-83
2023/02/05 02:34:42;;;;;;;;;7.75;7.75;;;;;;;;5073488;28;10813;-84
2023/02/05 02:37:12;;;;;;;;;5.25;5.25;;;;;;;;5080375;28;11025;-84
2023/02/05 02:39:42;;;;;;;;;4.75;4.75;;;;;;;;5078622;28;10827;-84
2023/02/05 02:42:13;;;;;;;;;8.00;7.25;;;;;;;;5081489;28;10842;-83
2023/02/05 02:44:47;;;;;;;;;4.25;3.00;;;;;;;;5074221;28;10983;-83
2023/02/05 02:47:18;;;;;;;;;7.50;7.50;;;;;;;;5079932;28;10822;-83
2023/02/05 02:49:49;;;;;;;;;4.50;4.50;;;;;;;;5075279;28;10911;-83
2023/02/05 02:52:20;;;;;;;;;8.75;6.75;;;;;;;;5074120;28;10741;-84
2023/02/05 02:54:49;;;;;;;;;2.00;2.00;;;;;;;;5078104;28;10888;-83
2023/02/05 02:57:20;;;;;;;;;9.50;7.50;;;;;;;;5078430;28;10888;-83
2023/02/05 02:59:51;;;;;;;;;5.25;4.00;;;;;;;;5076298;28;10987;-83
2023/02/05 03:02:20;;;;;;;;;4.25;4.25;;;;;;;;5079410;27;10943;-83
2023/02/05 03:04:53;;;;;;;;;5.00;5.00;;;;;;;;5070337;28;10833;-83
2023/02/05 03:07:24;;;;;;;;;6.50;6.50;;;;;;;;5075309;28;10968;-84
2023/02/05 03:09:57;;;;;;;;;4.75;4.75;;;;;;;;5077886;28;10817;-83
2023/02/05 03:12:25;;;;;;;;;11.75;4.00;;;;;;;;5070900;28;10742;-84
2023/02/05 03:14:55;;;;;;;;;7.25;5.00;;;;;;;;5071338;28;10876;-84
2023/02/05 03:17:24;;;;;;;;;2.00;2.00;;;;;;;;5079328;28;10875;-83
2023/02/05 03:20:03;;;;;;;;;9.00;5.75;;;;;;;;5076004;28;10678;-83
2023/02/05 03:22:31;;;;;;;;;5.00;4.00;;;;;;;;5078171;28;10965;-82
2023/02/05 03:24:59;;;;;;;;;6.50;3.50;;;;;;;;5072882;28;10910;-83
2023/02/05 03:27:27;;;;;;;;;7.75;4.00;;;;;;;;5079497;28;10921;-82
2023/02/05 03:29:57;;;;;;;;;3.75;3.75;;;;;;;;5074403;28;11027;-83
2023/02/05 03:32:36;;;;;;;;;6.00;3.75;;;;;;;;5104051;27;10946;-83
2023/02/05 03:35:19;;;;;;;;;5.00;3.00;;;;;;;;5087442;28;10970;-82
2023/02/05 03:37:56;;;;;;;;;5.50;3.75;;;;;;;;5087699;28;10840;-82
2023/02/05 03:40:31;;;;;;;;;4.00;4.00;;;;;;;;5103356;27;10924;-82
2023/02/05 03:43:07;;;;;;;;;2.75;2.75;;;;;;;;5098311;27;10897;-83
2023/02/05 03:45:48;;;;;;;;;5.75;5.75;;;;;;;;5111697;27;10940;-83
2023/02/05 03:48:37;;;;;;;;;4.75;3.00;;;;;;;;5104242;27;11030;-83
2023/02/05 03:51:17;;;;;;;;;6.25;3.75;;;;;;;;5094247;27;10957;-84
2023/02/05 03:53:53;;;;;;;;;6.50;3.75;;;;;;;;5101610;27;10895;-83
2023/02/05 03:56:24;;;;;;;;;5.00;5.00;;;;;;;;5095917;27;11070;-83
2023/02/05 03:58:55;;;;;;;;;3.50;2.00;;;;;;;;5103298;27;11102;-83
2023/02/05 04:01:24;;;;;;;;;4.75;3.00;;;;;;;;5107244;27;10905;-83
2023/02/05 04:03:52;;;;;;;;;4.00;4.00;;;;;;;;5103736;27;11087;-84
2023/02/05 04:06:20;;;;;;;;;3.25;3.25;;;;;;;;5108163;27;11211;-83
2023/02/05 04:08:48;;;;;;;;;6.00;3.50;;;;;;;;5102922;28;11197;-83
2023/02/05 04:11:16;;;;;;;;;4.00;4.00;;;;;;;;5109463;27;11114;-83
2023/02/05 04:13:43;;;;;;;;;5.00;3.25;;;;;;;;5105248;27;11467;-83
2023/02/05 04:16:11;;;;;;;;;5.00;3.00;;;;;;;;5105500;27;11446;-84
2023/02/05 04:18:40;;;;;;;;;3.50;3.50;;;;;;;;5098958;27;11431;-84
2023/02/05 04:21:08;;;;;;;;;6.25;4.00;;;;;;;;5096898;28;11385;-82
2023/02/05 04:23:37;;;;;;;;;4.00;4.00;;;;;;;;5088228;28;11382;-82
2023/02/05 04:26:04;;;;;;;;;4.00;2.75;;;;;;;;5106345;27;11517;-83
2023/02/05 04:28:32;;;;;;;;;5.50;3.00;;;;;;;;5099544;27;11162;-83
2023/02/05 04:31:00;;;;;;;;;1.75;1.75;;;;;;;;5099348;27;11145;-83
2023/02/05 04:33:28;;;;;;;;;7.25;5.00;;;;;;;;5099140;27;11136;-83
2023/02/05 04:36:00;;;;;;;;;3.00;3.00;;;;;;;;5096107;27;11431;-82
2023/02/05 04:38:28;;;;;;;;;3.50;3.00;;;;;;;;5099345;27;11215;-83
2023/02/05 04:40:56;;;;;;;;;2.00;2.00;;;;;;;;5106265;27;11227;-83
2023/02/05 04:43:24;;;;;;;;;1.00;1.00;;;;;;;;5100375;27;11062;-84
2023/02/05 04:45:51;;;;;;;;;3.00;3.00;;;;;;;;5110953;27;11114;-82
2023/02/05 04:48:20;;;;;;;;;7.00;4.50;;;;;;;;5102612;27;11298;-82
2023/02/05 04:50:47;;;;;;;;;6.00;3.25;;;;;;;;5088471;28;11114;-83
2023/02/05 04:53:17;;;;;;;;;4.50;3.50;;;;;;;;5079386;28;11205;-82
2023/02/05 04:55:44;;;;;;;;;3.00;3.00;;;;;;;;5081906;28;11442;-83
2023/02/05 04:58:12;;;;;;;;;3.00;3.00;;;;;;;;5090762;28;11203;-82
2023/02/05 05:00:39;;;;;;;;;3.00;3.00;;;;;;;;5085085;28;11053;-83
2023/02/05 05:03:07;;;;;;;;;0.25;0.25;;;;;;;;5102940;28;11028;-82
2023/02/05 05:05:35;;;;;;;;;5.00;5.00;;;;;;;;5109042;27;11035;-83
2023/02/05 05:08:03;;;;;;;;;9.25;7.00;;;;;;;;5100414;28;11176;-83
2023/02/05 05:10:32;;;;;;;;;4.00;4.00;;;;;;;;5102499;27;11162;-83
2023/02/05 05:13:00;;;;;;;;;6.75;6.75;;;;;;;;5105899;27;11108;-83
2023/02/05 05:15:27;;;;;;;;;6.75;5.50;;;;;;;;5052063;28;11431;-83
2023/02/05 05:17:55;;;;;;;;;5.50;5.50;;;;;;;;5105284;27;11592;-83
2023/02/05 05:20:22;;;;;;;;;8.00;6.50;;;;;;;;5091100;28;11396;-83
2023/02/05 05:22:50;;;;;;;;;5.00;3.50;;;;;;;;5082219;27;11410;-86
2023/02/05 05:25:18;;;;;;;;;6.50;6.50;;;;;;;;5111345;27;11507;-83
2023/02/05 05:27:47;;;;;;;;;3.75;3.75;;;;;;;;5114837;27;11407;-83
2023/02/05 05:30:15;;;;;;;;;8.00;6.50;;;;;;;;5116191;27;11397;-82
2023/02/05 05:32:43;;;;;;;;;7.25;6.00;;;;;;;;5117254;27;11406;-83
2023/02/05 05:35:10;;;;;;;;;4.00;3.75;;;;;;;;5090565;27;11518;-82
2023/02/05 05:37:38;;;;;;;;;3.75;3.75;;;;;;;;5090174;27;11437;-83
2023/02/05 05:45:38;;;;;;;;;6.75;6.75;;;;;;;;5094394;27;11379;-83
2023/02/05 05:48:07;;;;;;;;;7.50;6.00;;;;;;;;5096403;27;11363;-84
2023/02/05 05:50:35;;;;;;;;;3.00;3.00;;;;;;;;5112281;27;11476;-83
2023/02/05 05:53:03;;;;;;;;;6.00;6.00;;;;;;;;5089969;27;11402;-84
2023/02/05 05:55:30;;;;;;;;;4.00;4.00;;;;;;;;5106079;27;11408;-83
2023/02/05 05:58:01;;;;;;;;;7.00;7.00;;;;;;;;5109758;27;12279;-83
2023/02/05 06:00:28;;;;;;;;;7.25;6.00;;;;;;;;5105160;27;11418;-83
2023/02/05 06:02:56;;;;;;;;;7.50;6.00;;;;;;;;5091565;27;11448;-83
2023/02/05 06:05:24;;;;;;;;;5.50;5.50;;;;;;;;5106590;27;11474;-83
2023/02/05 06:07:52;;;;;;;;;6.75;3.75;;;;;;;;5091332;27;11411;-83
2023/02/05 06:10:20;;;;;;;;;6.50;6.00;;;;;;;;5107003;27;11399;-83
2023/02/05 06:12:47;;;;;;;;;7.00;4.50;;;;;;;;5108660;27;11394;-82
2023/02/05 06:15:16;;;;;;;;;5.00;5.00;;;;;;;;5092387;27;11445;-83
2023/02/05 06:17:44;;;;;;;;;8.00;6.25;;;;;;;;5095929;28;11399;-83
2023/02/05 06:20:13;;;;;;;;;6.00;6.00;;;;;;;;5087026;28;11409;-82
2023/02/05 06:22:41;;;;;;;;;8.00;6.00;;;;;;;;5104832;28;11420;-83
2023/02/05 06:25:08;;;;;;;;;6.00;6.00;;;;;;;;5087313;27;11438;-82
2023/02/05 06:27:36;;;;;;;;;7.00;7.00;;;;;;;;5090217;28;11538;-82
2023/02/05 06:30:04;;;;;;;;;6.50;6.50;;;;;;;;5100542;27;11348;-82
2023/02/05 06:32:33;;;;;;;;;7.50;6.00;;;;;;;;5091081;27;11389;-83
2023/02/05 06:35:00;;;;;;;;;7.00;6.50;;;;;;;;5108196;27;11448;-83
2023/02/05 06:37:29;;;;;;;;;7.25;7.25;;;;;;;;5110273;27;11403;-83
2023/02/05 06:39:57;;;;;;;;;7.00;7.00;;;;;;;;5105094;28;12217;-83
2023/02/05 06:42:24;;;;;;;;;7.75;7.75;;;;;;;;5087964;27;11412;-84
2023/02/05 06:44:52;;;;;;;;;8.00;6.25;;;;;;;;5074192;28;11454;-83
2023/02/05 06:47:20;;;;;;;;;9.00;9.00;;;;;;;;5102924;27;11508;-84
2023/02/05 06:49:49;;;;;;;;;10.75;8.00;;;;;;;;5112203;27;11517;-83
2023/02/05 06:52:17;;;;;;;;;7.75;7.50;;;;;;;;5107431;27;11386;-83
2023/02/05 06:54:45;;;;;;;;;6.25;6.25;;;;;;;;5106244;27;11422;-83
2023/02/05 06:57:12;;;;;;;;;10.25;8.75;;;;;;;;5105185;28;11488;-84
2023/02/05 06:59:40;;;;;;;;;8.00;8.00;;;;;;;;5110956;27;11405;-83
2023/02/05 07:02:09;;;;;;;;;7.00;7.00;;;;;;;;5110218;27;11421;-83
2023/02/05 07:04:38;;;;;;;;;6.50;4.50;;;;;;;;5089156;27;11411;-83
2023/02/05 07:07:07;;;;;;;;;4.00;4.00;;;;;;;;5107418;27;11416;-83
2023/02/05 07:09:35;;;;;;;;;7.00;6.25;;;;;;;;5116897;27;11421;-83
2023/02/05 07:12:02;;;;;;;;;10.00;8.25;;;;;;;;5091396;28;11543;-82
2023/02/05 07:14:31;;;;;;;;;8.75;7.00;;;;;;;;5118726;27;11444;-85
2023/02/05 07:16:58;;;;;;;;;6.75;6.75;;;;;;;;5093807;27;11485;-84
2023/02/05 07:19:26;;;;;;;;;8.75;7.75;;;;;;;;5096926;27;11394;-84
2023/02/05 07:21:55;;;;;;;;;6.50;6.50;;;;;;;;5108777;27;11451;-85
2023/02/05 07:24:25;;;;;;;;;9.75;8.25;;;;;;;;5109568;28;11402;-84
2023/02/05 07:26:57;;;;;;;;;11.25;8.25;;;;;;;;5107826;27;11399;-84
2023/02/05 07:29:24;;;;;;;;;7.50;7.50;;;;;;;;5103219;28;11530;-83
2023/02/05 07:31:53;;;;;;;;;8.00;8.00;;;;;;;;5099178;27;11400;-73
2023/02/05 07:34:22;;;;;;;;;7.50;6.50;;;;;;;;5112832;28;11378;-73
2023/02/05 07:36:51;;;;;;;;;9.75;8.25;;;;;;;;5082955;28;11405;-75
2023/02/05 07:39:18;;;;;;;;;9.00;9.00;;;;;;;;5103723;28;11565;-74
2023/02/05 07:41:50;;;;;;;;;7.50;7.50;;;;;;;;5102640;28;11376;-75
2023/02/05 07:44:17;;;;;;;;;13.25;13.00;;;;;;;;5097604;27;11404;-75
2023/02/05 07:46:45;;;;;;;;;16.00;13.00;;;;;;;;5099459;28;11485;-76
2023/02/05 07:49:12;;;;;;;;;12.50;10.00;;;;;;;;5065958;27;11470;-73
2023/02/05 07:51:39;;;;;;;;;13.00;12.25;;;;;;;;5087477;27;11410;-72
2023/02/05 07:54:14;;;;;;;;;16.50;14.50;;;;;;;;5079515;28;11384;-73
2023/02/05 07:56:43;;;;;;;;;14.00;13.50;;;;;;;;5095516;28;11449;-73
2023/02/05 07:59:12;;;;;;;;;18.00;13.25;;;;;;;;5080013;28;11440;-73
2023/02/05 08:01:48;;;;;;;;;17.50;14.75;;;;;;;;5081285;28;11379;-73
2023/02/05 08:04:16;;;;;;;;;15.75;15.00;;;;;;;;5098351;27;12199;-72
2023/02/05 08:06:47;;;;;;;;;16.25;13.00;;;;;;;;5097237;28;11480;-73
2023/02/05 08:09:25;;;;;;;;;13.75;9.75;;;;;;;;5099237;28;11453;-74
2023/02/05 08:11:53;;;;;;;;;16.75;14.00;;;;;;;;5102083;28;12578;-72
2023/02/05 08:14:22;;;;;;;;;13.00;13.00;;;;;;;;5097049;28;11537;-72
2023/02/05 08:16:50;;;;;;;;;21.00;17.50;;;;;;;;5097915;27;11419;-73
2023/02/05 08:19:18;;;;;;;;;15.75;15.75;;;;;;;;5097865;28;11420;-75
2023/02/05 08:21:45;;;;;;;;;17.75;16.75;;;;;;;;5094960;27;11535;-72
2023/02/05 08:24:15;;;;;;;;;18.25;14.25;;;;;;;;5094802;27;11457;-71
2023/02/05 08:26:43;;;;;;;;;19.25;17.50;;;;;;;;5090283;28;11454;-71
2023/02/05 08:29:11;;;;;;;;;18.00;15.50;;;;;;;;5098196;28;11161;-72
2023/02/05 08:31:40;;;;;;;;;15.00;13.00;;;;;;;;5097750;27;11107;-71
2023/02/05 08:34:10;;;;;;;;;11.00;11.00;;;;;;;;5097865;27;11086;-73
2023/02/05 08:36:37;;;;;;;;;15.25;14.25;;;;;;;;5081021;28;11001;-71
2023/02/05 08:39:05;;;;;;;;;12.75;12.75;;;;;;;;5094255;28;10924;-72
2023/02/05 08:41:32;;;;;;;;;11.25;10.00;;;;;;;;5100558;28;11003;-71
2023/02/05 08:44:00;;;;;;;;;5.00;5.00;;;;;;;;5096745;27;10927;-72
2023/02/05 08:46:27;;;;;;;;;5.00;5.00;;;;;;;;5101550;28;10743;-73
2023/02/05 08:48:56;;;;;;;;;4.00;4.00;;;;;;;;5098367;27;11430;-72
2023/02/05 08:51:23;;;;;;;;;3.00;3.00;;;;;;;;5094670;27;10669;-75
2023/02/05 08:53:52;;;;;;;;;8.00;5.00;;;;;;;;5100291;27;10615;-72
2023/02/05 08:56:20;;;;;;;;;3.00;3.00;;;;;;;;5100888;27;10764;-72
2023/02/05 08:58:47;;;;;;;;;6.00;3.25;;;;;;;;5097994;28;10620;-72
2023/02/05 09:01:16;;;;;;;;;3.75;3.75;;;;;;;;5086357;28;10528;-72
2023/02/05 09:03:44;;;;;;;;;7.00;7.00;;;;;;;;5094753;28;10539;-71
2023/02/05 09:06:15;;;;;;;;;2.75;2.75;;;;;;;;5079977;28;10528;-71
2023/02/05 09:08:43;;;;;;;;;5.00;3.50;;;;;;;;5093087;28;10513;-71
2023/02/05 09:11:12;;;;;;;;;3.25;3.25;;;;;;;;5098218;28;11312;-72
2023/02/05 09:13:39;;;;;;;;;2.00;2.00;;;;;;;;5098961;28;10466;-71
2023/02/05 09:16:09;;;;;;;;;3.00;3.00;;;;;;;;5097821;28;10250;-70
2023/02/05 09:18:37;;;;;;;;;1.75;1.75;;;;;;;;5094624;28;10362;-73
2023/02/05 09:21:07;;;;;;;;;2.00;2.00;;;;;;;;5095425;28;10309;-72
2023/02/05 09:23:36;;;;;;;;;7.00;4.00;;;;;;;;5096977;27;10407;-72
2023/02/05 09:26:05;;;;;;;;;6.50;4.00;;;;;;;;5095053;28;11378;-71
2023/02/05 09:28:33;;;;;;;;;5.00;5.00;;;;;;;;5067313;28;10637;-71
2023/02/05 09:31:05;;;;;;;;;4.00;4.00;;;;;;;;5069671;28;10439;-73
2023/02/05 09:33:33;;;;;;;;;4.00;4.00;;;;;;;;5094933;27;10630;-71
2023/02/05 09:36:06;;;;;;;;;3.25;3.25;;;;;;;;5097646;27;10520;-70
2023/02/05 09:38:35;;;;;;;;;4.75;3.00;;;;;;;;5095540;28;10689;-71
2023/02/05 09:41:07;;;;;;;;;2.00;2.00;;;;;;;;5097145;28;10618;-71
2023/02/05 09:43:45;;;;;;;;;4.00;2.75;;;;;;;;5097983;27;10731;-72
2023/02/05 09:46:17;;;;;;;;;1.75;1.75;;;;;;;;5074290;28;10600;-71
2023/02/05 09:48:49;;;;;;;;;8.50;5.25;;;;;;;;5092836;27;11262;-71
2023/02/05 09:51:19;;;;;;;;;3.00;1.00;;;;;;;;5081670;28;10736;-73
2023/02/05 09:53:52;;;;;;;;;1.00;1.00;;;;;;;;5095948;28;10531;-71
2023/02/05 09:56:20;;;;;;;;;0.00;0.00;;;;;;;;5096638;27;10471;-71
2023/02/05 09:58:49;;;;;;;;;8.00;3.00;;;;;;;;5098258;27;10377;-71
2023/02/05 10:01:22;;;;;;;;;2.00;0.00;;;;;;;;5093269;28;10493;-71
2023/02/05 10:03:55;;;;;;;;;0.00;0.00;;;;;;;;5095651;28;10375;-71
2023/02/05 10:06:55;;;;;;;;;0.00;0.00;;;;;;;;5096859;28;10289;-71
2023/02/05 10:09:42;;;;;;;;;2.00;1.00;;;;;;;;5091795;28;10346;-72
2023/02/05 10:12:21;;;;;;;;;0.75;0.75;;;;;;;;5094455;28;11107;-71
2023/02/05 10:14:58;;;;;;;;;1.00;1.00;;;;;;;;5090961;28;11040;-71
2023/02/05 10:17:37;;;;;;;;;1.00;1.00;;;;;;;;5094947;27;10310;-72
2023/02/05 10:20:20;;;;;;;;;1.00;1.00;;;;;;;;5097615;28;10224;-73
2023/02/05 10:23:00;;;;;;;;;1.00;1.00;;;;;;;;5094322;28;10224;-71
2023/02/05 10:25:44;;;;;;;;;0.00;0.00;;;;;;;;5094164;28;10308;-71
2023/02/05 10:28:22;;;;;;;;;2.00;0.25;;;;;;;;5072433;27;10157;-71
2023/02/05 10:30:54;;;;;;;;;0.00;0.00;;;;;;;;5099193;28;10170;-70
2023/02/05 10:33:35;;;;;;;;;0.00;0.00;;;;;;;;5096379;28;10279;-71
2023/02/05 10:36:05;;;;;;;;;3.00;0.00;;;;;;;;5095485;28;11212;-73
2023/02/05 10:38:36;;;;;;;;;2.00;0.00;;;;;;;;5093892;28;10323;-71
2023/02/05 10:41:12;;;;;;;;;1.00;0.00;;;;;;;;5099369;28;10053;-71
2023/02/05 10:43:46;;;;;;;;;0.00;0.00;;;;;;;;5077194;28;10253;-71
2023/02/05 10:46:13;;;;;;;;;0.25;0.25;;;;;;;;5082977;27;10077;-71
2023/02/05 10:48:45;;;;;;;;;0.50;0.00;;;;;;;;5098310;28;10169;-70
2023/02/05 10:51:16;;;;;;;;;1.00;1.00;;;;;;;;5095677;28;10145;-71
2023/02/05 10:53:44;;;;;;;;;1.00;1.00;;;;;;;;5080136;28;10080;-72
2023/02/05 10:56:18;;;;;;;;;0.00;0.00;;;;;;;;5092630;27;10037;-72
2023/02/05 10:58:51;;;;;;;;;0.25;0.25;;;;;;;;5077897;28;9911;-71
2023/02/05 11:01:21;;;;;;;;;0.00;0.00;;;;;;;;5095859;27;10518;-72
2023/02/05 11:03:59;;;;;;;;;1.00;1.00;;;;;;;;5076880;27;9848;-72
2023/02/05 11:06:29;;;;;;;;;1.00;1.00;;;;;;;;5100644;28;10249;-71
2023/02/05 11:08:56;;;;;;;;;0.75;0.75;;;;;;;;5079787;27;10089;-72
2023/02/05 11:11:28;;;;;;;;;1.75;0.00;;;;;;;;5097279;28;10076;-70
2023/02/05 11:13:58;;;;;;;;;0.00;0.00;;;;;;;;5098847;28;10090;-71
2023/02/05 11:16:35;;;;;;;;;3.25;1.00;;;;;;;;5099767;28;10105;-72
2023/02/05 11:19:14;;;;;;;;;4.00;0.25;;;;;;;;5100204;27;10140;-70
2023/02/05 11:21:50;;;;;;;;;1.00;0.00;;;;;;;;5084415;28;10074;-72
2023/02/05 11:24:25;;;;;;;;;2.00;2.00;;;;;;;;5078717;28;10224;-71
2023/02/05 11:27:13;;;;;;;;;0.50;0.00;;;;;;;;5061626;28;10269;-72
2023/02/05 11:29:41;;;;;;;;;1.75;1.75;;;;;;;;5070941;28;10156;-71
2023/02/05 11:32:19;;;;;;;;;1.25;1.00;;;;;;;;5082042;28;10292;-72
2023/02/05 11:34:46;;;;;;;;;4.00;2.50;;;;;;;;5080374;28;10230;-73
2023/02/05 11:37:17;;;;;;;;;1.00;0.00;;;;;;;;5080327;28;10259;-72
2023/02/05 11:39:45;;;;;;;;;1.00;0.00;;;;;;;;5082011;28;10148;-72
2023/02/05 11:42:20;;;;;;;;;2.50;2.00;;;;;;;;5080283;28;10740;-72
2023/02/05 11:44:49;;;;;;;;;1.00;1.00;;;;;;;;5073527;28;9747;-72
2023/02/05 11:47:24;;;;;;;;;2.00;2.00;;;;;;;;5068971;28;9749;-72
2023/02/05 11:49:52;;;;;;;;;3.00;2.25;;;;;;;;5081481;28;9889;-72
2023/02/05 11:52:27;;;;;;;;;1.00;1.00;;;;;;;;5059262;28;9851;-75
2023/02/05 11:54:55;;;;;;;;;1.00;1.00;;;;;;;;5078883;28;10448;-72
2023/02/05 12:00:23;;;;;;;;;2.25;1.75;;;;;;;;5050447;28;13562;-72
2023/02/05 12:02:52;;;;;;;;;2.00;2.00;;;;;;;;5039963;28;9591;-73
2023/02/05 12:05:24;;;;;;;;;1.00;1.00;;;;;;;;5041763;28;10163;-73
2023/02/05 12:07:55;;;;;;;;;2.00;1.25;;;;;;;;5039789;28;9486;-72
2023/02/05 12:10:28;;;;;;;;;1.00;1.00;;;;;;;;5040080;28;9618;-73
2023/02/05 12:13:03;;;;;;;;;1.00;1.00;;;;;;;;5039005;28;9634;-73
2023/02/05 12:15:37;;;;;;;;;4.00;4.00;;;;;;;;5035678;28;9709;-73
2023/02/05 12:18:15;;;;;;;;;3.00;2.00;;;;;;;;5037374;28;9876;-73
2023/02/05 12:20:48;;;;;;;;;4.00;2.25;;;;;;;;5037194;28;9769;-74
2023/02/05 12:23:57;;;;;;;;;1.75;0.50;;;;;;;;5038745;28;9931;-74
2023/02/05 12:26:29;;;;;;;;;4.00;1.00;;;;;;;;4985763;28;9709;-75
2023/02/05 12:29:20;;;;;;;;;2.00;2.00;;;;;;;;5040016;28;10410;-74
2023/02/05 12:32:03;;;;;;;;;1.00;1.00;;;;;;;;5052205;28;9734;-75
2023/02/05 12:34:39;;;;;;;;;2.00;2.00;;;;;;;;5089747;27;9649;-75
2023/02/05 12:37:22;;;;;;;;;3.00;1.00;;;;;;;;5056726;28;9477;-75
2023/02/05 12:39:53;;;;;;;;;2.75;2.00;;;;;;;;5057209;28;9425;-76
2023/02/05 12:42:34;;;;;;;;;1.00;1.00;;;;;;;;5053617;28;9511;-73
2023/02/05 12:45:29;;;;;;;;;1.00;1.00;;;;;;;;5054507;28;9392;-75
2023/02/05 12:48:12;;;;;;;;;3.00;1.33;;;;;;;;5060737;28;9303;-74
2023/02/05 12:50:49;;;;;;;;;0.00;0.00;;;;;;;;5060919;28;9344;-72
2023/02/05 12:53:28;;;;;;;;;3.00;2.00;;;;;;;;5058781;28;9008;-75
2023/02/05 12:56:24;;;;;;;;;2.67;1.00;;;;;;;;5057415;28;9238;-73
2023/02/05 12:58:56;;;;;;;;;3.33;1.67;;;;;;;;5045297;28;9115;-72
2023/02/05 13:01:29;;;;;;;;;2.00;0.33;;;;;;;;5057626;28;9286;-74
2023/02/05 13:04:00;;;;;;;;;2.00;0.00;;;;;;;;5055062;28;9244;-76
2023/02/05 13:06:30;;;;;;;;;0.33;0.33;;;;;;;;5058250;28;9323;-76
2023/02/05 13:09:03;;;;;;;;;1.00;1.00;;;;;;;;5052392;28;9344;-74
2023/02/05 13:11:34;;;;;;;;;2.00;2.00;;;;;;;;5040149;28;10333;-76
2023/02/05 13:14:06;;;;;;;;;2.67;1.00;;;;;;;;5042617;28;9320;-74
2023/02/05 13:16:39;;;;;;;;;1.00;1.00;;;;;;;;5041951;28;9098;-72
2023/02/05 13:19:26;;;;;;;;;1.00;1.00;;;;;;;;5039612;28;8901;-73
2023/02/05 13:30:22;;;;;;;;;3.00;1.00;;;;;;;;5039619;28;9909;-72
2023/02/05 13:32:53;;;;;;;;;3.33;2.00;;;;;;;;5047590;28;8925;-75
2023/02/05 13:35:22;;;;;;;;;0.25;0.25;;;;;;;;5047939;28;9111;-73
2023/02/05 13:38:11;;;;;;;;;0.00;0.00;;;;;;;;5048092;28;9600;-73
2023/02/05 13:41:10;;;;;;;;;4.25;1.50;;;;;;;;5040227;28;9086;-73
2023/02/05 13:43:53;;;;;;;;;7.00;1.67;;;;;;;;5043194;28;8855;-74
2023/02/05 13:46:45;;;;;;;;;1.00;1.00;;;;;;;;5042328;28;9526;-76
2023/02/05 13:49:51;;;;;;;;;3.00;1.00;;;;;;;;5042328;28;9984;-75
2023/02/05 13:52:45;;;;;;;;;1.67;1.00;;;;;;;;5040439;28;9073;-73
2023/02/05 13:55:41;;;;;;;;;3.00;0.75;;;;;;;;5043170;28;8975;-74
2023/02/05 13:58:13;;;;;;;;;3.00;1.00;;;;;;;;5044150;28;8873;-73
2023/02/05 14:00:42;;;;;;;;;2.00;1.00;;;;;;;;5064691;28;8878;-70
2023/02/05 14:03:17;;;;;;;;;3.00;1.00;;;;;;;;5056355;28;8925;-72
2023/02/05 14:05:44;;;;;;;;;4.33;1.00;;;;;;;;5058096;28;9023;-73
2023/02/05 14:08:22;;;;;;;;;2.33;1.00;;;;;;;;5061582;28;9049;-71
2023/02/05 14:10:58;;;;;;;;;2.00;0.00;;;;;;;;5063933;28;9071;-71
2023/02/05 14:13:30;;;;;;;;;0.33;0.33;;;;;;;;5058394;28;9250;-73
2023/02/05 14:15:59;;;;;;;;;1.00;1.00;;;;;;;;5051412;28;9073;-72
2023/02/05 14:18:48;;;;;;;;;1.67;1.00;;;;;;;;5059088;28;9215;-72
2023/02/05 14:21:55;;;;;;;;;1.00;1.00;;;;;;;;5064873;28;9255;-72
2023/02/05 14:24:38;;;;;;;;;3.67;2.00;;;;;;;;5060553;28;9279;-72
2023/02/05 14:27:21;;;;;;;;;3.00;2.00;;;;;;;;5062866;28;9226;-71
2023/02/05 14:29:50;;;;;;;;;2.00;2.00;;;;;;;;5065484;28;9325;-72
2023/02/05 14:32:56;;;;;;;;;3.00;3.00;;;;;;;;5060551;28;10061;-72
2023/02/05 14:35:31;;;;;;;;;4.00;2.33;;;;;;;;5064624;28;9321;-72
2023/02/05 14:38:01;;;;;;;;;1.67;1.67;;;;;;;;5048224;28;9539;-73
2023/02/05 14:40:34;;;;;;;;;3.67;3.00;;;;;;;;5059072;28;9495;-71
2023/02/05 14:43:13;;;;;;;;;1.67;1.00;;;;;;;;5059139;28;9235;-73
2023/02/05 14:45:45;;;;;;;;;4.33;1.00;;;;;;;;5043351;28;9199;-73
2023/02/05 14:48:21;;;;;;;;;4.67;2.67;;;;;;;;5063549;28;9317;-71
2023/02/05 14:51:01;;;;;;;;;5.33;3.00;;;;;;;;5064365;28;9329;-73
2023/02/05 14:53:29;;;;;;;;;1.00;1.00;;;;;;;;5056141;28;9328;-71
2023/02/05 14:55:58;;;;;;;;;3.00;1.00;;;;;;;;5059965;28;9331;-72
2023/02/05 14:58:31;;;;;;;;;1.00;1.00;;;;;;;;5062387;28;9452;-72
2023/02/05 15:01:31;;;;;;;;;2.67;1.00;;;;;;;;5061807;28;9307;-76
2023/02/05 15:04:00;;;;;;;;;4.75;4.75;;;;;;;;5056360;28;9243;-71
2023/02/05 15:06:29;;;;;;;;;2.00;2.00;;;;;;;;5052639;28;9600;-71
2023/02/05 15:09:02;;;;;;;;;3.00;3.00;;;;;;;;5054714;28;9420;-70
2023/02/05 15:11:44;;;;;;;;;3.50;3.25;;;;;;;;5056918;28;9607;-70
2023/02/05 15:14:43;;;;;;;;;4.00;3.00;;;;;;;;5054082;28;9534;-71
2023/02/05 15:17:36;;;;;;;;;1.50;1.50;;;;;;;;5056591;28;9476;-72
2023/02/05 15:20:24;;;;;;;;;3.25;3.25;;;;;;;;5048166;28;9510;-72
2023/02/05 15:22:58;;;;;;;;;3.00;1.00;;;;;;;;5055934;28;9475;-72
2023/02/05 15:25:42;;;;;;;;;2.25;2.25;;;;;;;;5042112;28;9639;-72
2023/02/05 15:28:21;;;;;;;;;2.67;1.00;;;;;;;;5056177;28;9541;-72
2023/02/05 15:31:13;;;;;;;;;1.50;1.50;;;;;;;;5057404;28;9262;-71